Time;durP1;ratioP1;P1;durP2;ratioP2;P2;SDS_P1;SDS_P2;PMS_P1;PMS_P2;Temp;Humidity;BMP_temperature;BMP_pressure;BME280_temperature;BME280_humidity;BME280_pressure;Samples;Min_cycle;Max_cycle;Signal;HPM_P1;HPM_P2
2022/05/11 00:01:33;;;;;;;4.80;3.88;;;;;;;19.11;51.16;100420.81;4995771;28;20048;-78
2022/05/11 00:04:01;;;;;;;5.03;4.05;;;;;;;19.09;51.03;100424.50;4996242;28;20397;-78
2022/05/11 00:06:27;;;;;;;5.30;3.97;;;;;;;19.07;51.09;100424.56;4988606;28;20035;-78
2022/05/11 00:08:53;;;;;;;5.95;4.70;;;;;;;19.03;51.44;100420.28;4979692;28;20034;-78
2022/05/11 00:11:19;;;;;;;6.18;3.97;;;;;;;19.01;51.56;100423.00;4991404;28;20560;-78
2022/05/11 00:13:46;;;;;;;6.22;4.03;;;;;;;19.03;51.26;100417.63;4980665;28;20050;-78
2022/05/11 00:16:12;;;;;;;7.32;4.38;;;;;;;19.04;51.09;100408.66;4989664;28;20112;-78
2022/05/11 00:18:38;;;;;;;9.40;4.60;;;;;;;19.03;51.11;100418.47;4997059;28;20058;-78
2022/05/11 00:21:03;;;;;;;7.13;4.30;;;;;;;19.03;51.12;100412.28;4990934;28;20026;-78
2022/05/11 00:23:29;;;;;;;8.13;5.10;;;;;;;19.02;51.11;100410.50;4989775;28;20397;-78
2022/05/11 00:25:54;;;;;;;6.60;4.40;;;;;;;18.99;51.04;100403.50;4978237;28;20037;-78
2022/05/11 00:28:20;;;;;;;6.35;4.63;;;;;;;18.97;51.73;100408.06;4978673;28;20053;-78
2022/05/11 00:30:45;;;;;;;9.82;5.03;;;;;;;18.96;51.54;100410.78;4995470;28;20033;-78
2022/05/11 00:33:13;;;;;;;5.85;4.72;;;;;;;18.95;51.43;100411.72;4990871;28;20385;-78
2022/05/11 00:35:40;;;;;;;6.18;4.63;;;;;;;18.93;51.79;100410.91;4975052;28;20623;-78
2022/05/11 00:38:05;;;;;;;6.60;3.83;;;;;;;18.87;52.14;100408.50;4990859;28;20409;-78
2022/05/11 00:40:42;;;;;;;7.10;4.40;;;;;;;18.84;51.91;100401.50;4971408;28;20034;-78
2022/05/11 00:43:08;;;;;;;7.88;4.25;;;;;;;18.83;51.93;100400.59;4987003;28;20125;-78
2022/05/11 00:45:35;;;;;;;5.82;4.47;;;;;;;18.81;51.88;100407.84;4956428;28;20067;-78
2022/05/11 00:49:33;;;;;;;6.28;4.88;;;;;;;18.77;52.00;100400.88;4988846;28;20046;-78
2022/05/11 00:50:55;;;;;;;5.60;4.70;;;;;;;18.73;52.73;100404.59;4989998;28;20046;-78
2022/05/11 00:53:21;;;;;;;6.43;5.28;;;;;;;18.71;52.94;100403.78;4972309;28;20053;-78
2022/05/11 00:55:51;;;;;;;5.88;4.25;;;;;;;18.71;52.53;100395.75;4986504;28;20475;-78
2022/05/11 00:58:22;;;;;;;8.40;4.80;;;;;;;18.69;52.60;100402.09;4989615;28;20035;-78
2022/05/11 01:00:48;;;;;;;8.15;4.35;;;;;;;18.66;53.13;100397.75;4990393;28;20050;-77
2022/05/11 01:03:17;;;;;;;7.57;3.97;;;;;;;18.70;52.70;100394.00;4989815;28;20033;-79
2022/05/11 01:05:44;;;;;;;6.38;4.65;;;;;;;18.73;52.54;100395.69;4986309;28;20042;-78
2022/05/11 01:08:10;;;;;;;5.07;4.40;;;;;;;18.72;52.32;100392.13;4971917;28;20022;-78
2022/05/11 01:10:35;;;;;;;6.07;4.40;;;;;;;18.75;52.58;100389.38;4988214;28;20053;-78
2022/05/11 01:13:04;;;;;;;5.88;4.50;;;;;;;18.79;52.16;100391.00;4953835;28;20572;-78
2022/05/11 01:15:32;;;;;;;5.97;4.18;;;;;;;18.80;52.46;100389.19;4979654;28;20505;-78
2022/05/11 01:17:58;;;;;;;5.97;4.63;;;;;;;18.74;52.35;100384.94;4977555;28;20113;-78
2022/05/11 01:20:25;;;;;;;7.30;4.30;;;;;;;18.73;52.26;100390.31;4988953;28;20038;-78
2022/05/11 01:23:26;;;;;;;7.10;4.88;;;;;;;18.75;52.16;100380.47;4988968;28;20502;-78
2022/05/11 01:25:51;;;;;;;9.05;4.68;;;;;;;18.68;52.43;100378.97;4991479;28;20034;-78
2022/05/11 01:28:18;;;;;;;7.28;4.90;;;;;;;18.72;52.11;100373.44;4990569;28;20045;-78
2022/05/11 01:30:49;;;;;;;6.88;4.50;;;;;;;18.75;52.17;100375.13;4960971;28;20042;-78
2022/05/11 01:33:24;;;;;;;6.43;4.70;;;;;;;18.73;52.36;100369.84;4981131;28;20045;-78
2022/05/11 01:35:49;;;;;;;6.03;4.57;;;;;;;18.69;52.76;100381.59;4978673;28;20032;-78
2022/05/11 01:38:26;;;;;;;7.97;5.00;;;;;;;18.74;52.27;100374.22;4989528;28;20050;-78
2022/05/11 01:40:51;;;;;;;6.75;4.28;;;;;;;18.74;52.37;100368.88;4990688;28;20042;-78
2022/05/11 01:43:20;;;;;;;5.90;4.32;;;;;;;18.73;52.27;100367.16;4970502;28;20042;-78
2022/05/11 01:45:46;;;;;;;6.53;5.10;;;;;;;18.72;52.19;100370.75;4972678;28;20034;-78
2022/05/11 01:48:12;;;;;;;6.07;4.80;;;;;;;18.67;52.37;100374.56;4987938;28;20133;-78
2022/05/11 01:50:37;;;;;;;5.65;4.60;;;;;;;18.65;52.38;100361.25;4969817;28;20046;-78
2022/05/11 01:53:04;;;;;;;7.18;3.85;;;;;;;18.66;52.49;100362.13;4980190;28;20038;-78
2022/05/11 01:55:30;;;;;;;6.32;4.80;;;;;;;18.61;52.51;100365.00;4985239;28;20030;-78
2022/05/11 01:57:55;;;;;;;6.45;5.30;;;;;;;18.57;52.71;100368.72;4979851;28;20030;-78
2022/05/11 02:00:20;;;;;;;7.72;5.32;;;;;;;18.54;52.95;100367.03;4995132;28;20039;-78
2022/05/11 02:02:46;;;;;;;11.07;7.07;;;;;;;18.51;53.13;100369.00;4980868;28;20031;-77
2022/05/11 02:07:55;;;;;;;6.72;6.07;;;;;;;18.42;53.25;100367.56;4992806;28;20493;-78
2022/05/11 02:10:25;;;;;;;5.82;5.15;;;;;;;18.36;53.43;100367.81;4981177;28;20058;-78
2022/05/11 02:12:51;;;;;;;9.13;8.20;;;;;;;18.32;53.17;100372.41;4993472;28;20043;-78
2022/05/11 02:15:18;;;;;;;7.03;5.80;;;;;;;18.28;53.59;100364.59;4991037;28;20034;-77
2022/05/11 02:17:45;;;;;;;6.03;5.03;;;;;;;18.24;53.32;100369.19;4982338;28;20042;-78
2022/05/11 02:20:13;;;;;;;7.97;6.75;;;;;;;18.19;53.79;100371.19;4991514;28;20676;-78
2022/05/11 02:22:40;;;;;;;12.07;6.90;;;;;;;18.11;53.79;100373.28;4973750;28;20106;-78
2022/05/11 02:25:06;;;;;;;7.35;5.35;;;;;;;18.04;54.05;100367.31;4975588;28;20041;-78
2022/05/11 02:27:32;;;;;;;9.52;6.68;;;;;;;17.93;54.39;100365.06;4968484;28;20102;-78
2022/05/11 02:29:58;;;;;;;7.35;5.22;;;;;;;17.85;54.74;100363.63;4993743;28;20074;-78
2022/05/11 02:32:23;;;;;;;5.85;4.57;;;;;;;17.78;55.00;100365.63;4976089;28;20038;-78
2022/05/11 02:37:33;;;;;;;6.18;5.00;;;;;;;17.61;55.55;100368.06;4998995;28;20042;-79
2022/05/11 02:39:59;;;;;;;6.65;4.30;;;;;;;17.56;55.52;100378.06;4996942;28;20038;-78
2022/05/11 02:42:24;;;;;;;7.03;5.18;;;;;;;17.47;55.83;100369.44;4987553;28;20049;-78
2022/05/11 02:44:49;;;;;;;6.47;4.45;;;;;;;17.41;56.05;100369.69;4989585;28;20034;-79
2022/05/11 02:47:15;;;;;;;6.95;4.22;;;;;;;17.40;55.95;100367.94;4995674;28;20035;-79
2022/05/11 02:49:40;;;;;;;9.13;8.23;;;;;;;17.37;56.30;100368.06;5000454;28;20045;-79
2022/05/11 02:52:06;;;;;;;7.57;6.38;;;;;;;17.33;56.72;100371.75;4986929;28;20038;-79
2022/05/11 02:54:31;;;;;;;8.45;6.32;;;;;;;17.26;57.01;100371.09;4982055;28;20481;-78
2022/05/11 02:56:57;;;;;;;6.90;6.20;;;;;;;17.22;57.52;100377.47;4996870;28;20081;-78
2022/05/11 02:59:22;;;;;;;7.78;5.22;;;;;;;17.14;57.68;100371.56;4981365;28;20108;-79
2022/05/11 03:01:51;;;;;;;7.78;5.30;;;;;;;17.09;57.89;100369.06;4995052;28;20031;-78
2022/05/11 03:04:18;;;;;;;6.45;5.45;;;;;;;17.06;57.58;100366.50;4968397;28;20035;-78
2022/05/11 03:06:47;;;;;;;6.25;5.30;;;;;;;17.06;57.82;100366.50;4985685;28;20022;-78
2022/05/11 03:09:16;;;;;;;8.48;6.13;;;;;;;17.05;58.15;100369.19;4999536;28;20054;-78
2022/05/11 03:11:43;;;;;;;7.35;4.85;;;;;;;16.94;58.27;100366.91;4994613;28;20042;-79
2022/05/11 03:14:09;;;;;;;8.93;7.78;;;;;;;16.84;59.08;100365.50;4980235;28;20035;-79
2022/05/11 03:16:36;;;;;;;7.60;6.82;;;;;;;16.83;59.39;100369.09;4996820;28;20038;-79
2022/05/11 03:19:02;;;;;;;10.55;7.05;;;;;;;16.83;59.25;100375.28;4971142;28;20034;-79
2022/05/11 03:21:28;;;;;;;7.75;5.70;;;;;;;16.86;59.42;100374.31;4977540;28;20062;-78
2022/05/11 03:23:54;;;;;;;8.13;5.18;;;;;;;16.85;59.42;100372.59;5002898;28;20038;-79
2022/05/11 03:26:19;;;;;;;7.30;5.72;;;;;;;16.79;59.43;100373.69;4995926;28;20058;-79
2022/05/11 03:28:45;;;;;;;7.70;5.97;;;;;;;16.69;60.27;100373.97;4992429;28;20049;-78
2022/05/11 03:31:11;;;;;;;10.98;6.55;;;;;;;16.62;60.34;100368.88;4994255;28;20038;-78
2022/05/11 03:36:20;;;;;;;8.40;5.95;;;;;;;16.63;60.28;100375.06;4995289;28;20649;-78
2022/05/11 03:38:46;;;;;;;9.13;7.05;;;;;;;16.67;60.08;100368.72;4963173;28;20034;-78
2022/05/11 03:41:11;;;;;;;10.73;8.60;;;;;;;16.69;59.88;100371.31;4993887;28;20117;-78
2022/05/11 03:43:37;;;;;;;9.32;7.60;;;;;;;16.73;60.10;100372.97;4962365;28;20037;-78
2022/05/11 03:46:02;;;;;;;8.38;7.47;;;;;;;16.67;60.65;100373.19;4997548;28;20382;-78
2022/05/11 03:48:27;;;;;;;12.45;9.23;;;;;;;16.56;61.16;100376.22;4996332;28;20038;-78
2022/05/11 03:50:54;;;;;;;11.68;8.20;;;;;;;16.56;61.32;100379.75;5002415;28;20649;-78
2022/05/11 03:53:20;;;;;;;15.13;8.65;;;;;;;16.57;61.49;100370.81;5069847;23;20049;-78
2022/05/11 03:56:10;;;;;;;13.55;8.35;;;;;;;16.64;60.97;100377.69;5010296;28;20085;-78
2022/05/11 04:02:28;;;;;;;11.50;9.50;;;;;;;16.86;61.00;100382.31;5040927;22;20061;-79
2022/05/11 04:04:55;;;;;;;11.43;8.32;;;;;;;16.90;61.24;100369.75;5001091;28;20042;-78
2022/05/11 04:07:21;;;;;;;8.30;6.90;;;;;;;16.96;61.09;100370.41;5001738;28;20180;-79
2022/05/11 04:09:46;;;;;;;8.07;7.28;;;;;;;17.05;61.62;100370.06;5001342;28;20062;-78
2022/05/11 04:12:11;;;;;;;8.30;6.97;;;;;;;17.09;61.73;100363.72;5000662;28;20100;-78
2022/05/11 04:14:37;;;;;;;8.07;7.22;;;;;;;17.17;61.90;100373.25;5002085;28;20441;-78
2022/05/11 04:17:02;;;;;;;10.27;7.82;;;;;;;17.29;61.31;100372.78;5001898;28;20117;-78
2022/05/11 04:19:29;;;;;;;7.75;6.95;;;;;;;17.28;61.76;100377.25;4995514;28;20066;-78
2022/05/11 04:21:55;;;;;;;9.18;7.47;;;;;;;17.24;61.81;100385.44;5001081;28;20030;-78
2022/05/11 04:24:20;;;;;;;9.45;7.90;;;;;;;17.23;61.91;100371.22;4972811;28;20129;-78
2022/05/11 04:26:46;;;;;;;9.50;7.55;;;;;;;17.25;61.61;100380.03;5000982;28;20136;-78
2022/05/11 04:29:11;;;;;;;10.40;8.25;;;;;;;17.35;61.44;100375.25;4998416;28;20030;-78
2022/05/11 04:31:37;;;;;;;8.65;7.72;;;;;;;17.43;60.84;100381.16;4992059;28;20034;-77
2022/05/11 04:34:03;;;;;;;11.75;7.95;;;;;;;17.55;60.75;100385.16;4995686;28;20049;-78
2022/05/11 04:36:30;;;;;;;10.18;7.53;;;;;;;17.63;60.57;100384.88;5002204;28;20069;-78
2022/05/11 04:38:55;;;;;;;14.20;9.25;;;;;;;17.67;61.01;100383.84;4994561;28;20089;-78
2022/05/11 04:41:21;;;;;;;14.15;9.10;;;;;;;17.67;60.92;100386.53;5001657;28;20042;-78
2022/05/11 04:43:46;;;;;;;10.48;8.05;;;;;;;17.70;61.00;100379.25;4997910;28;20038;-78
2022/05/11 04:46:11;;;;;;;10.82;7.90;;;;;;;17.81;61.13;100380.69;4982159;28;20104;-79
2022/05/11 04:48:37;;;;;;;12.45;8.18;;;;;;;17.89;60.81;100389.25;5000647;28;20038;-78
2022/05/11 04:51:04;;;;;;;9.95;8.00;;;;;;;18.00;60.59;100386.16;4994804;28;20038;-78
2022/05/11 04:53:30;;;;;;;8.52;7.40;;;;;;;18.08;60.63;100389.44;5001910;28;20042;-78
2022/05/11 04:55:56;;;;;;;13.38;7.80;;;;;;;18.20;60.29;100390.72;5002556;28;20031;-78
2022/05/11 04:58:22;;;;;;;10.05;7.70;;;;;;;18.32;59.82;100393.78;4999393;28;20121;-78
2022/05/11 05:00:47;;;;;;;10.43;7.00;;;;;;;18.47;59.31;100396.75;5000750;28;20077;-78
2022/05/11 05:03:14;;;;;;;8.57;6.30;;;;;;;18.60;58.95;100393.53;5002445;28;20070;-78
2022/05/11 05:05:40;;;;;;;11.07;7.07;;;;;;;18.79;58.77;100393.66;5002264;28;20049;-78
2022/05/11 05:08:07;;;;;;;8.98;6.28;;;;;;;18.92;57.42;100394.00;5003064;28;20649;-78
2022/05/11 05:10:33;;;;;;;11.20;6.25;;;;;;;19.02;57.35;100397.13;5002668;28;20035;-78
2022/05/11 05:13:07;;;;;;;11.65;6.85;;;;;;;19.16;57.53;100400.09;4985223;28;20053;-78
2022/05/11 05:15:34;;;;;;;7.53;6.32;;;;;;;19.30;57.26;100398.63;4998656;28;20038;-78
2022/05/11 05:18:01;;;;;;;6.95;5.75;;;;;;;19.38;56.46;100404.50;5001187;28;20489;-78
2022/05/11 05:20:27;;;;;;;8.73;6.85;;;;;;;19.47;56.53;100396.06;4985217;28;20038;-78
2022/05/11 05:22:53;;;;;;;8.40;5.65;;;;;;;19.60;56.33;100397.25;5003118;28;20540;-78
2022/05/11 05:25:18;;;;;;;19.23;7.15;;;;;;;19.69;55.96;100390.63;4986723;28;20038;-78
2022/05/11 05:27:43;;;;;;;11.48;7.18;;;;;;;19.88;55.75;100394.16;5005256;28;20034;-78
2022/05/11 05:32:53;;;;;;;6.60;5.85;;;;;;;20.28;54.80;100396.78;4985888;28;20520;-79
2022/05/11 05:35:20;;;;;;;8.38;5.80;;;;;;;20.44;53.94;100399.59;5007961;28;20038;-78
2022/05/11 05:37:46;;;;;;;10.80;6.22;;;;;;;20.49;53.55;100402.91;5009202;28;20037;-79
2022/05/11 05:40:12;;;;;;;12.15;6.72;;;;;;;20.52;53.15;100398.25;5009446;28;20038;-79
2022/05/11 05:42:38;;;;;;;10.15;6.15;;;;;;;20.53;53.46;100397.28;5008223;28;20034;-79
2022/05/11 05:45:08;;;;;;;7.20;5.80;;;;;;;20.63;52.90;100395.06;4991356;28;20042;-79
2022/05/11 05:47:33;;;;;;;9.13;5.65;;;;;;;20.70;52.45;100391.16;5008962;28;20400;-77
2022/05/11 05:49:59;;;;;;;8.13;6.22;;;;;;;20.63;52.70;100388.84;5007615;28;20066;-78
2022/05/11 05:52:26;;;;;;;9.57;5.93;;;;;;;20.69;52.18;100388.53;5009156;28;20101;-78
2022/05/11 05:54:54;;;;;;;9.02;6.30;;;;;;;20.78;52.15;100382.72;5009655;28;20057;-78
2022/05/11 05:57:19;;;;;;;8.05;6.47;;;;;;;20.85;52.44;100385.94;5007057;28;20043;-79
2022/05/11 05:59:47;;;;;;;7.57;6.18;;;;;;;20.90;51.44;100392.78;4991784;28;20033;-78
2022/05/11 06:02:13;;;;;;;9.95;6.20;;;;;;;20.95;52.14;100396.09;5005994;28;20485;-78
2022/05/11 06:04:47;;;;;;;9.27;7.47;;;;;;;21.03;51.50;100387.66;5007633;28;20045;-78
2022/05/11 06:07:13;;;;;;;12.55;9.77;;;;;;;21.11;51.68;100395.31;5004217;28;20038;-79
2022/05/11 06:09:39;;;;;;;10.93;8.65;;;;;;;21.28;51.60;100395.31;4991033;28;20050;-79
2022/05/11 06:12:11;;;;;;;11.65;7.45;;;;;;;21.50;50.79;100403.13;5008775;28;20060;-79
2022/05/11 06:14:38;;;;;;;10.95;8.77;;;;;;;21.68;50.23;100401.25;4975586;28;20069;-78
2022/05/11 06:17:04;;;;;;;14.20;12.27;;;;;;;21.86;49.72;100405.63;5008289;28;20026;-79
2022/05/11 06:19:30;;;;;;;11.13;7.70;;;;;;;21.91;49.29;100404.53;5008386;28;20045;-79
2022/05/11 06:21:55;;;;;;;9.60;6.35;;;;;;;22.06;49.35;100401.84;4988835;28;20111;-78
2022/05/11 06:24:21;;;;;;;8.27;5.40;;;;;;;22.05;48.80;100408.16;5010085;28;20298;-78
2022/05/11 06:26:46;;;;;;;9.45;5.45;;;;;;;22.04;48.80;100406.44;4975474;28;20045;-78
2022/05/11 06:29:12;;;;;;;11.93;8.07;;;;;;;22.01;48.80;100409.28;5010313;28;20045;-79
2022/05/11 06:31:37;;;;;;;7.90;5.88;;;;;;;22.11;48.30;100401.56;4992130;28;20505;-78
2022/05/11 06:34:03;;;;;;;10.43;8.95;;;;;;;22.03;47.93;100406.50;5009422;28;20085;-79
2022/05/11 06:36:29;;;;;;;7.60;5.72;;;;;;;22.12;47.78;100400.63;4991897;28;20030;-79
2022/05/11 06:38:56;;;;;;;7.63;5.75;;;;;;;22.20;48.27;100403.78;5007607;28;20051;-79
2022/05/11 06:41:27;;;;;;;8.18;7.20;;;;;;;22.25;48.34;100404.38;5008270;28;20073;-78
2022/05/11 06:43:53;;;;;;;7.50;5.38;;;;;;;22.40;48.54;100410.72;4991122;28;20061;-78
2022/05/11 06:46:19;;;;;;;6.40;5.18;;;;;;;22.53;47.67;100408.16;5008684;28;20090;-79
2022/05/11 06:48:45;;;;;;;8.00;5.85;;;;;;;22.49;47.04;100398.56;5009365;28;20037;-78
2022/05/11 06:51:11;;;;;;;7.90;5.38;;;;;;;22.51;47.69;100407.41;5008759;28;20042;-78
2022/05/11 07:01:57;;;;;;;8.57;6.97;;;;;;;22.48;48.14;100394.16;5003400;28;20037;-78
2022/05/11 07:04:23;;;;;;;7.68;5.15;;;;;;;22.58;47.20;100387.25;4998286;28;20042;-79
2022/05/11 07:06:53;;;;;;;9.32;6.80;;;;;;;22.71;46.94;100379.34;5008465;28;20026;-78
2022/05/11 07:09:24;;;;;;;9.32;7.03;;;;;;;22.82;46.71;100387.66;5005002;28;20456;-79
2022/05/11 07:14:35;;;;;;;7.75;5.97;;;;;;;22.96;47.05;100382.34;5005157;28;20046;-79
2022/05/11 07:17:01;;;;;;;8.77;5.85;;;;;;;22.86;47.77;100375.75;5008758;28;20045;-78
2022/05/11 07:19:27;;;;;;;8.35;6.13;;;;;;;23.01;47.14;100368.63;5008141;28;20042;-78
2022/05/11 07:21:53;;;;;;;9.88;8.60;;;;;;;23.22;47.08;100373.66;5008767;28;20061;-79
2022/05/11 07:24:19;;;;;;;12.10;9.43;;;;;;;23.48;46.13;100355.88;5009242;28;20038;-79
2022/05/11 07:26:44;;;;;;;9.45;7.82;;;;;;;23.70;45.59;100363.47;5008568;28;20027;-79
2022/05/11 07:29:10;;;;;;;9.07;6.32;;;;;;;23.85;46.17;100359.81;4990641;28;20035;-79
2022/05/11 07:31:36;;;;;;;10.70;8.40;;;;;;;23.83;45.67;100362.59;5008076;28;20041;-78
2022/05/11 07:34:02;;;;;;;7.35;4.90;;;;;;;23.54;44.93;100356.34;4988756;28;20042;-79
2022/05/11 07:36:27;;;;;;;10.27;8.25;;;;;;;23.54;45.38;100361.72;5007324;28;20045;-79
2022/05/11 07:38:52;;;;;;;9.45;7.88;;;;;;;23.63;44.89;100360.28;4991188;28;20050;-78
2022/05/11 07:41:19;;;;;;;7.53;4.82;;;;;;;23.56;44.77;100357.13;4991399;28;20058;-78
2022/05/11 07:43:44;;;;;;;9.55;6.68;;;;;;;23.51;45.25;100363.75;5008239;28;20084;-78
2022/05/11 07:46:10;;;;;;;6.55;5.15;;;;;;;23.60;45.16;100360.47;5006906;28;20034;-78
2022/05/11 07:48:36;;;;;;;8.35;5.30;;;;;;;23.50;45.69;100357.53;5006501;28;20049;-79
2022/05/11 07:51:01;;;;;;;7.38;6.38;;;;;;;23.52;46.13;100352.88;5007091;28;20030;-78
2022/05/11 07:53:26;;;;;;;6.07;5.10;;;;;;;23.44;45.96;100357.03;5008422;28;20052;-78
2022/05/11 07:59:52;;;;;;;7.20;4.63;;;;;;;23.47;46.35;100355.00;4991344;28;20030;-78
2022/05/11 08:01:23;;;;;;;5.72;4.85;;;;;;;23.53;46.51;100349.25;4997013;28;20102;-79
2022/05/11 08:03:48;;;;;;;8.23;5.05;;;;;;;23.61;45.89;100352.31;5003790;28;20039;-79
2022/05/11 08:06:16;;;;;;;5.78;5.18;;;;;;;23.59;46.39;100348.84;5008923;28;20058;-79
2022/05/11 08:08:42;;;;;;;14.13;6.10;;;;;;;23.70;46.20;100350.00;4990939;28;20076;-79
2022/05/11 08:11:07;;;;;;;8.30;5.82;;;;;;;23.73;45.62;100347.13;5008767;28;20030;-79
2022/05/11 08:13:33;;;;;;;7.93;5.13;;;;;;;23.90;45.74;100349.63;5006986;28;20130;-79
2022/05/11 08:15:59;;;;;;;9.15;5.20;;;;;;;24.02;45.72;100348.81;5007964;28;20057;-79
2022/05/11 08:18:24;;;;;;;8.35;5.82;;;;;;;23.86;45.35;100342.69;5009478;28;20058;-78
2022/05/11 08:20:49;;;;;;;12.35;9.15;;;;;;;23.92;45.41;100336.91;4999013;28;20046;-79
2022/05/11 08:23:15;;;;;;;7.53;4.40;;;;;;;24.04;45.45;100336.09;5007629;28;20046;-79
2022/05/11 08:25:43;;;;;;;7.80;4.20;;;;;;;24.16;45.06;100336.28;4991656;28;20038;-79
2022/05/11 08:28:21;;;;;;;7.75;4.85;;;;;;;24.21;44.16;100320.66;4990031;28;20034;-79
2022/05/11 08:33:34;;;;;;;10.80;6.38;;;;;;;24.43;43.49;100318.25;4994820;28;20401;-78
2022/05/11 08:36:06;;;;;;;10.05;4.88;;;;;;;24.40;42.73;100314.91;4981736;28;20568;-78
2022/05/11 08:38:35;;;;;;;7.15;5.88;;;;;;;24.44;42.84;100306.53;4998595;28;20117;-78
2022/05/11 08:41:23;;;;;;;6.05;4.50;;;;;;;24.55;43.14;100311.19;4995174;28;20061;-78
2022/05/11 08:43:49;;;;;;;6.97;5.28;;;;;;;24.68;42.96;100306.69;4982193;28;20089;-78
2022/05/11 08:46:39;;;;;;;7.82;5.55;;;;;;;24.89;42.89;100315.16;4981194;28;20069;-78
2022/05/11 08:49:26;;;;;;;9.88;8.05;;;;;;;24.99;42.00;100309.09;4978047;28;20049;-78
2022/05/11 08:52:04;;;;;;;6.10;4.15;;;;;;;25.18;41.68;100306.88;4962833;28;20050;-78
2022/05/11 08:54:32;;;;;;;9.85;5.70;;;;;;;25.42;41.25;100300.69;4994838;28;20038;-78
2022/05/11 08:56:59;;;;;;;6.95;4.80;;;;;;;25.52;41.68;100296.38;4997101;28;20452;-78
2022/05/11 08:59:29;;;;;;;6.55;5.95;;;;;;;25.53;40.78;100292.66;4996140;28;20451;-78
2022/05/11 09:02:03;;;;;;;7.18;3.55;;;;;;;25.54;39.49;100299.78;4994817;28;20026;-78
2022/05/11 09:04:48;;;;;;;9.50;5.07;;;;;;;25.53;39.99;100292.66;4979076;28;20038;-78
2022/05/11 09:07:13;;;;;;;9.68;6.30;;;;;;;25.65;40.44;100294.50;4994031;28;20043;-78
2022/05/11 09:09:40;;;;;;;7.68;4.38;;;;;;;25.85;40.05;100286.78;4978083;28;20041;-78
2022/05/11 09:12:07;;;;;;;5.97;3.15;;;;;;;25.90;39.48;100287.31;4992778;28;20030;-78
2022/05/11 09:14:44;;;;;;;4.57;3.20;;;;;;;25.96;39.03;100293.13;4959844;28;20034;-78
2022/05/11 09:17:30;;;;;;;6.63;3.72;;;;;;;25.96;37.51;100294.94;4979275;28;20084;-78
2022/05/11 09:20:12;;;;;;;5.72;4.22;;;;;;;26.03;37.71;100282.72;4993223;28;20058;-77
2022/05/11 09:22:54;;;;;;;5.35;4.35;;;;;;;26.15;37.72;100283.66;4994695;28;20049;-78
2022/05/11 09:25:20;;;;;;;6.40;3.00;;;;;;;26.28;37.42;100273.63;4975631;28;20042;-78
2022/05/11 09:27:46;;;;;;;5.65;3.13;;;;;;;26.21;37.06;100278.63;4978538;28;20042;-78
2022/05/11 09:30:22;;;;;;;5.95;2.65;;;;;;;26.22;36.41;100274.94;4977075;28;20042;-78
2022/05/11 09:32:52;;;;;;;7.00;3.10;;;;;;;26.25;36.65;100276.53;4994841;28;20492;-78
2022/05/11 09:35:17;;;;;;;7.45;4.10;;;;;;;26.36;36.94;100265.78;4994688;28;20038;-78
2022/05/11 09:37:47;;;;;;;5.93;2.92;;;;;;;26.58;35.35;100266.88;4997170;28;20057;-78
2022/05/11 09:40:20;;;;;;;4.78;2.83;;;;;;;26.67;35.86;100264.31;4996595;28;20030;-78
2022/05/11 09:42:51;;;;;;;7.10;3.15;;;;;;;26.71;35.39;100264.06;4954193;28;20042;-78
2022/05/11 09:45:33;;;;;;;8.68;3.40;;;;;;;26.86;35.29;100260.16;4983848;28;20054;-78
2022/05/11 09:48:12;;;;;;;5.13;2.97;;;;;;;26.94;35.59;100255.00;4994169;28;20042;-78
2022/05/11 09:50:38;;;;;;;7.53;2.80;;;;;;;26.88;34.09;100256.38;4979349;28;20038;-78
2022/05/11 09:53:22;;;;;;;3.40;2.08;;;;;;;26.83;32.80;100263.13;4996294;28;20042;-78
2022/05/11 09:55:48;;;;;;;8.00;2.65;;;;;;;26.86;32.78;100247.50;4963846;28;20035;-78
2022/05/11 09:58:27;;;;;;;10.77;2.83;;;;;;;26.94;33.32;100249.59;4979652;28;20065;-78
2022/05/11 10:00:53;;;;;;;3.60;2.10;;;;;;;26.95;33.18;100256.72;4993586;28;20042;-79
2022/05/11 10:03:28;;;;;;;8.50;2.40;;;;;;;27.13;33.24;100238.16;4991083;28;20557;-79
2022/05/11 10:05:54;;;;;;;5.47;2.60;;;;;;;27.34;33.60;100232.88;4996452;28;20036;-80
2022/05/11 10:08:26;;;;;;;12.60;3.65;;;;;;;27.47;33.53;100236.31;4988653;28;20117;-79
2022/05/11 10:11:02;;;;;;;6.25;2.65;;;;;;;27.48;32.62;100227.22;4970404;28;20046;-79
2022/05/11 10:13:35;;;;;;;5.65;2.50;;;;;;;27.53;33.56;100230.38;4975599;28;20049;-80
2022/05/11 10:22:06;;;;;;;6.05;2.20;;;;;;;27.92;32.74;100219.97;4989334;28;20030;-79
2022/05/11 10:24:51;;;;;;;5.75;3.03;;;;;;;27.87;33.11;100226.78;4975040;28;20105;-78
2022/05/11 10:27:42;;;;;;;8.35;3.30;;;;;;;28.15;31.94;100214.47;4993062;28;20038;-78
2022/05/11 10:30:24;;;;;;;5.78;3.10;;;;;;;28.38;32.41;100210.66;4965984;28;20038;-79
2022/05/11 10:33:13;;;;;;;5.70;3.72;;;;;;;28.28;31.95;100209.72;4975576;28;20042;-78
2022/05/11 10:35:59;;;;;;;6.47;2.80;;;;;;;28.34;32.41;100200.19;4993027;28;20037;-79
2022/05/11 10:38:31;;;;;;;4.25;2.63;;;;;;;28.48;31.50;100194.47;4993603;28;20065;-79
2022/05/11 10:41:30;;;;;;;4.32;2.35;;;;;;;28.63;31.88;100193.13;4976409;28;20412;-79
2022/05/11 10:44:07;;;;;;;7.00;4.95;;;;;;;28.91;31.36;100200.72;4977074;28;20125;-79
2022/05/11 10:47:06;;;;;;;6.80;3.05;;;;;;;28.95;30.78;100194.00;4995054;28;20084;-79
2022/05/11 10:49:50;;;;;;;5.88;2.72;;;;;;;28.80;31.50;100194.38;4991728;28;20038;-79
2022/05/11 10:52:55;;;;;;;6.80;2.92;;;;;;;28.51;31.65;100193.34;4990931;28;20034;-78
2022/05/11 10:55:49;;;;;;;8.05;2.70;;;;;;;28.56;31.42;100191.94;4974983;28;20089;-79
2022/05/11 10:58:49;;;;;;;4.95;2.47;;;;;;;28.40;31.68;100175.22;4994200;28;20057;-81
2022/05/11 11:01:16;;;;;;;5.65;2.92;;;;;;;28.10;32.11;100176.88;4974727;28;20049;-80
2022/05/11 11:04:05;;;;;;;5.05;2.70;;;;;;;28.22;31.03;100171.38;4977654;28;20058;-80
2022/05/11 11:07:14;;;;;;;8.10;4.85;;;;;;;28.83;31.51;100172.38;4993095;28;20485;-80
2022/05/11 11:09:45;;;;;;;9.75;3.15;;;;;;;29.37;31.16;100164.00;4970892;28;20027;-80
2022/05/11 11:12:49;;;;;;;3.92;2.85;;;;;;;29.49;29.75;100179.19;4995282;28;20075;-81
2022/05/11 11:15:17;;;;;;;6.32;3.17;;;;;;;29.47;29.69;100165.78;4977638;28;20038;-80
2022/05/11 11:17:44;;;;;;;8.43;2.55;;;;;;;29.57;29.20;100152.16;4995337;28;20038;-80
2022/05/11 11:20:15;;;;;;;13.02;4.30;;;;;;;29.32;29.92;100153.56;4992684;28;20042;-80
2022/05/11 11:23:00;;;;;;;9.00;3.00;;;;;;;29.15;29.63;100162.38;4994768;28;20034;-80
2022/05/11 11:25:25;;;;;;;12.13;4.90;;;;;;;29.39;29.62;100162.00;4992505;28;20308;-80
2022/05/11 11:28:10;;;;;;;6.32;4.05;;;;;;;29.73;29.53;100153.50;4977758;28;20121;-80
2022/05/11 11:30:36;;;;;;;7.55;4.78;;;;;;;30.09;29.17;100141.06;4993227;28;20046;-80
2022/05/11 11:33:23;;;;;;;5.95;2.50;;;;;;;29.84;28.32;100142.47;4991383;28;20070;-80
2022/05/11 11:36:04;;;;;;;6.55;3.80;;;;;;;30.16;28.46;100134.03;4993675;28;20027;-80
2022/05/11 11:38:46;;;;;;;4.80;2.97;;;;;;;30.26;28.77;100136.75;4973660;28;20030;-80
2022/05/11 11:41:16;;;;;;;11.23;4.28;;;;;;;30.58;27.86;100130.97;4974046;28;20038;-80
2022/05/11 11:44:03;;;;;;;7.05;3.30;;;;;;;31.10;27.18;100133.19;4992542;28;20445;-80
2022/05/11 11:46:38;;;;;;;6.03;3.25;;;;;;;30.67;27.72;100138.22;4992272;28;20132;-81
2022/05/11 11:49:09;;;;;;;7.47;2.78;;;;;;;29.92;27.29;100129.00;4984898;28;20386;-80
2022/05/11 11:51:57;;;;;;;6.47;3.40;;;;;;;30.06;28.23;100127.75;4996702;28;20049;-80
2022/05/11 11:54:48;;;;;;;10.23;6.88;;;;;;;30.09;28.24;100122.00;4980524;28;20056;-80
2022/05/11 11:57:34;;;;;;;9.73;2.80;;;;;;;29.79;28.28;100117.56;4981102;28;20108;-81
2022/05/11 12:00:05;;;;;;;9.40;4.00;;;;;;;30.14;27.96;100117.84;4967024;28;20087;-80
2022/05/11 12:02:43;;;;;;;8.10;4.50;;;;;;;30.07;28.13;100113.13;4991929;28;20537;-80
2022/05/11 12:05:28;;;;;;;5.65;2.88;;;;;;;29.81;28.12;100116.41;4977943;28;20112;-81
2022/05/11 12:16:24;;;;;;;10.88;3.03;;;;;;;31.40;26.06;100092.00;4994621;28;20046;-81
2022/05/11 12:18:49;;;;;;;8.05;2.70;;;;;;;30.96;25.88;100083.63;4975203;28;20030;-80
2022/05/11 12:21:27;;;;;;;9.32;4.88;;;;;;;30.98;26.37;100095.25;4991280;28;20041;-82
2022/05/11 12:23:53;;;;;;;4.25;2.40;;;;;;;31.90;25.57;100084.28;4974464;28;20482;-81